Terminal Aerodrome Forecast
Issued by NWS Northern Indiana

Home | Current Version | Previous Version | Text Only | Print | Product List | Glossary Off
Versions: 1 2 3 4 5 6 7 8 9 10 11 12 13 14 15 16 17

000
FTUS43 KIWX 120536
TAFFWA
TAF
KFWA 120536Z 1206/1306 30012KT 5SM -SN BR OVC012
     FM120900 30018G26KT 3SM -SHSN OVC025
      TEMPO 1211/1215 3/4SM -SN BLSN OVC020
     FM121500 30017G24KT 3SM -SHSN OVC025
      TEMPO 1215/1219 1/2SM SN BLSN VV008
     FM130300 30011G16KT P6SM -SHSN OVC035=

USA.gov is the U.S. government's official web portal to all federal, state and local government web resources and services.